createdAt,value
2023-04-04T00:00:29.146Z,97439.91
2023-04-04T00:02:56.912Z,97448.34
2023-04-04T00:05:24.521Z,97440.63
2023-04-04T00:07:52.347Z,97431.38
2023-04-04T00:10:21.684Z,97433.00
2023-04-04T00:12:49.377Z,97422.81
2023-04-04T00:15:17.016Z,97430.03
2023-04-04T00:17:44.511Z,97427.78
2023-04-04T00:20:12.750Z,97430.47
2023-04-04T00:22:40.238Z,97420.41
2023-04-04T00:25:08.640Z,97417.09
2023-04-04T00:27:37.528Z,97414.72
2023-04-04T00:30:05.880Z,97414.97
2023-04-04T00:32:33.558Z,97414.16
2023-04-04T00:35:01.230Z,97410.94
2023-04-04T00:37:29.044Z,97412.47
2023-04-04T00:39:56.728Z,97413.81
2023-04-04T00:42:24.427Z,97404.44
2023-04-04T00:44:54.132Z,97407.25
2023-04-04T00:47:23.584Z,97410.94
2023-04-04T00:49:51.285Z,97404.19
2023-04-04T00:52:19.441Z,97399.22
2023-04-04T00:54:46.951Z,97398.41
2023-04-04T00:57:14.775Z,97393.28
2023-04-04T00:59:43.109Z,97394.09
2023-04-04T01:02:12.260Z,97389.78
2023-04-04T01:04:39.864Z,97384.94
2023-04-04T01:07:07.811Z,97387.72
2023-04-04T01:09:35.768Z,97383.41
2023-04-04T01:12:03.855Z,97382.59
2023-04-04T01:14:31.511Z,97386.09
2023-04-04T01:17:02.258Z,97387.00
2023-04-04T01:19:34.350Z,97382.19
2023-04-04T01:22:03.334Z,97382.41
2023-04-04T01:24:36.199Z,97374.09
2023-04-04T01:27:04.898Z,97375.00
2023-04-04T01:29:32.419Z,97375.63
2023-04-04T01:32:09.373Z,97371.75
2023-04-04T01:34:45.596Z,97374.31
2023-04-04T01:37:25.981Z,97372.34
2023-04-04T01:39:57.261Z,97363.91
2023-04-04T01:42:27.906Z,97374.41
2023-04-04T01:44:56.063Z,97371.84
2023-04-04T01:47:23.661Z,97359.91
2023-04-04T01:49:53.934Z,97372.56
2023-04-04T01:52:22.206Z,97365.16
2023-04-04T01:54:50.807Z,97372.97
2023-04-04T01:57:25.391Z,97374.81
2023-04-04T01:59:59.854Z,97371.53
2023-04-04T02:02:34.217Z,97369.91
2023-04-04T02:05:02.828Z,97371.75
2023-04-04T02:07:33.874Z,97378.53
2023-04-04T02:10:02.197Z,97370.72
2023-04-04T02:12:32.148Z,97370.63
2023-04-04T02:15:01.766Z,97376.66
2023-04-04T02:17:29.731Z,97371.75
2023-04-04T02:19:58.041Z,97370.31
2023-04-04T02:22:33.380Z,97369.69
2023-04-04T02:25:08.019Z,97369.81
2023-04-04T02:27:42.933Z,97369.81
2023-04-04T02:30:18.630Z,97368.88
2023-04-04T02:32:47.881Z,97369.69
2023-04-04T02:35:18.108Z,97371.34
2023-04-04T02:37:47.973Z,97360.34
2023-04-04T02:40:21.598Z,97367.44
2023-04-04T02:42:49.453Z,97364.16
2023-04-04T02:45:18.956Z,97361.78
2023-04-04T02:47:52.737Z,97360.03
2023-04-04T02:50:20.737Z,97355.72
2023-04-04T02:52:51.867Z,97361.97
2023-04-04T02:55:22.287Z,97355.44
2023-04-04T02:58:06.681Z,97356.34
2023-04-04T03:00:36.946Z,97355.53
2023-04-04T03:03:07.862Z,97351.41
2023-04-04T03:05:38.051Z,97358.28
2023-04-04T03:08:07.534Z,97357.56
2023-04-04T03:10:35.473Z,97356.97
2023-04-04T03:13:11.170Z,97356.31
2023-04-04T03:15:47.412Z,97358.19
2023-04-04T03:18:21.578Z,97363.53
2023-04-04T03:20:51.427Z,97365.38
2023-04-04T03:23:24.469Z,97350.78
2023-04-04T03:26:04.827Z,97356.63
2023-04-04T03:28:34.173Z,97366.91
2023-04-04T03:31:15.321Z,97356.63
2023-04-04T03:33:53.998Z,97356.94
2023-04-04T03:36:26.180Z,97360.53
2023-04-04T03:39:06.207Z,97354.69
2023-04-04T03:41:52.856Z,97351.50
2023-04-04T03:44:31.776Z,97351.50
2023-04-04T03:47:06.452Z,97344.00
2023-04-04T03:49:48.265Z,97346.47
2023-04-04T03:52:25.970Z,97347.06
2023-04-04T03:55:08.396Z,97344.59
2023-04-04T03:57:42.452Z,97352.41
2023-04-04T04:00:18.655Z,97337.94
2023-04-04T04:03:01.534Z,97345.53
2023-04-04T04:05:40.848Z,97352.59
2023-04-04T04:08:14.548Z,97347.78
2023-04-04T04:10:43.138Z,97348.91
2023-04-04T04:13:13.635Z,97353.53
2023-04-04T04:15:41.704Z,97347.75
2023-04-04T04:18:25.417Z,97354.94
2023-04-04T04:21:04.848Z,97346.59
2023-04-04T04:23:32.584Z,97347.53
2023-04-04T04:26:01.985Z,97347.03
2023-04-04T04:28:34.006Z,97343.81
2023-04-04T04:31:09.222Z,97348.13
2023-04-04T04:33:38.238Z,97344.94
2023-04-04T04:36:13.747Z,97337.44
2023-04-04T04:38:46.313Z,97343.41
2023-04-04T04:41:26.286Z,97333.13
2023-04-04T04:43:54.692Z,97341.00
2023-04-04T04:46:22.839Z,97341.84
2023-04-04T04:48:52.837Z,97349.44
2023-04-04T04:51:20.774Z,97345.22
2023-04-04T04:53:48.872Z,97347.81
2023-04-04T04:56:16.605Z,97357.84
2023-04-04T04:58:45.124Z,97347.59
2023-04-04T05:01:12.736Z,97345.22
2023-04-04T05:03:40.443Z,97350.47
2023-04-04T05:06:09.322Z,97357.34
2023-04-04T05:08:37.148Z,97356.41
2023-04-04T05:11:05.584Z,97357.25
2023-04-04T05:13:33.354Z,97360.63
2023-04-04T05:16:00.870Z,97359.16
2023-04-04T05:18:28.395Z,97358.34
2023-04-04T05:20:56.333Z,97362.75
2023-04-04T05:23:25.405Z,97368.91
2023-04-04T05:25:53.645Z,97371.56
2023-04-04T05:28:21.505Z,97363.97
2023-04-04T05:30:49.030Z,97375.06
2023-04-04T05:33:16.822Z,97373.31
2023-04-04T05:35:44.414Z,97371.56
2023-04-04T05:38:12.636Z,97357.00
2023-04-04T05:40:41.771Z,97369.72
2023-04-04T05:43:09.612Z,97365.41
2023-04-04T05:45:37.654Z,97361.81
2023-04-04T05:48:06.699Z,97371.28
2023-04-04T05:50:34.255Z,97372.22
2023-04-04T05:53:02.912Z,97369.72
2023-04-04T05:55:30.513Z,97372.22
2023-04-04T05:57:59.393Z,97370.47
2023-04-04T06:00:27.018Z,97370.97
2023-04-04T06:02:58.532Z,97373.47
2023-04-04T06:05:26.369Z,97367.50
2023-04-04T06:07:53.905Z,97361.53
2023-04-04T06:10:21.500Z,97368.84
2023-04-04T06:12:49.040Z,97371.03
2023-04-04T06:15:18.190Z,97367.34
2023-04-04T06:17:46.225Z,97370.63
2023-04-04T06:20:13.855Z,97372.09
2023-04-04T06:22:41.439Z,97371.69
2023-04-04T06:25:10.427Z,97374.06
2023-04-04T06:27:38.056Z,97371.09
2023-04-04T06:30:06.349Z,97375.00
2023-04-04T06:32:35.283Z,97374.72
2023-04-04T06:35:04.709Z,97371.72
2023-04-04T06:37:32.294Z,97372.34
2023-04-04T06:39:59.839Z,97372.13
2023-04-04T06:42:28.165Z,97372.56
2023-04-04T06:44:55.786Z,97372.97
2023-04-04T06:47:23.309Z,97366.53
2023-04-04T06:49:52.410Z,97374.41
2023-04-04T06:52:19.992Z,97376.16
2023-04-04T06:54:47.626Z,97369.50
2023-04-04T06:57:15.187Z,97368.84
2023-04-04T06:59:45.097Z,97372.53
2023-04-04T07:02:12.938Z,97370.06
2023-04-04T07:04:41.869Z,97353.88
2023-04-04T07:07:11.025Z,97364.22
2023-04-04T07:09:38.825Z,97374.38
2023-04-04T07:12:06.682Z,97366.59
2023-04-04T07:14:34.235Z,97367.34
2023-04-04T07:17:08.122Z,97370.59
2023-04-04T07:19:44.737Z,97370.31
2023-04-04T07:22:14.476Z,97368.59
2023-04-04T07:24:42.533Z,97374.56
2023-04-04T07:27:11.163Z,97382.22
2023-04-04T07:29:38.687Z,97382.72
2023-04-04T07:32:06.319Z,97377.47
2023-04-04T07:34:33.918Z,97381.34
2023-04-04T07:37:01.440Z,97377.94
2023-04-04T07:39:30.322Z,97380.31
2023-04-04T07:41:57.837Z,97377.56
2023-04-04T07:44:25.400Z,97374.06
2023-04-04T07:47:06.239Z,97374.50
2023-04-04T07:49:34.299Z,97384.78
2023-04-04T07:52:01.825Z,97391.03
2023-04-04T07:54:30.673Z,97380.19
2023-04-04T07:56:58.284Z,97387.38
2023-04-04T07:59:25.926Z,97384.50
2023-04-04T08:01:55.818Z,97391.94
2023-04-04T08:04:23.361Z,97384.59
2023-04-04T08:06:51.602Z,97386.63
2023-04-04T08:09:19.366Z,97391.97
2023-04-04T08:11:48.387Z,97388.06
2023-04-04T08:14:16.533Z,97386.66
2023-04-04T08:16:44.077Z,97383.19
2023-04-04T08:19:11.606Z,97390.69
2023-04-04T08:21:39.132Z,97381.59
2023-04-04T08:24:07.708Z,97377.38
2023-04-04T08:26:35.407Z,97388.97
2023-04-04T08:29:05.009Z,97377.16
2023-04-04T08:31:33.115Z,97386.25
2023-04-04T08:34:02.022Z,97388.38
2023-04-04T08:36:30.640Z,97378.91
2023-04-04T08:38:58.204Z,97372.03
2023-04-04T08:41:27.063Z,97369.81
2023-04-04T08:43:56.692Z,97375.03
2023-04-04T08:46:26.885Z,97374.44
2023-04-04T08:48:57.579Z,97366.00
2023-04-04T08:51:27.681Z,97374.50
2023-04-04T08:53:57.086Z,97371.16
2023-04-04T08:56:25.100Z,97367.56
2023-04-04T08:58:52.859Z,97369.59
2023-04-04T09:01:21.032Z,97359.97
2023-04-04T09:03:51.578Z,97371.59
2023-04-04T09:06:21.017Z,97367.41
2023-04-04T09:08:49.439Z,97370.38
2023-04-04T09:11:20.049Z,97360.34
2023-04-04T09:13:51.756Z,97363.84
2023-04-04T09:16:20.411Z,97374.41
2023-04-04T09:18:48.631Z,97364.09
2023-04-04T09:21:21.720Z,97370.78
2023-04-04T09:23:59.320Z,97356.56
2023-04-04T09:26:27.154Z,97362.44
2023-04-04T09:28:55.917Z,97349.84
2023-04-04T09:31:26.111Z,97353.00
2023-04-04T09:33:54.468Z,97359.19
2023-04-04T09:36:25.144Z,97349.56
2023-04-04T09:38:55.586Z,97349.75
2023-04-04T09:41:24.215Z,97358.38
2023-04-04T09:43:52.405Z,97355.69
2023-04-04T09:46:21.795Z,97362.78
2023-04-04T09:48:50.878Z,97359.38
2023-04-04T09:51:19.045Z,97361.47
2023-04-04T09:53:50.855Z,97363.16
2023-04-04T09:56:19.113Z,97367.81
2023-04-04T09:59:02.634Z,97376.19
2023-04-04T10:01:31.426Z,97360.22
2023-04-04T10:03:59.293Z,97363.69
2023-04-04T10:06:28.011Z,97365.53
2023-04-04T10:08:58.474Z,97368.03
2023-04-04T10:11:31.780Z,97361.16
2023-04-04T10:14:01.422Z,97354.50
2023-04-04T10:16:32.992Z,97355.09
2023-04-04T10:19:02.848Z,97348.94
2023-04-04T10:21:31.429Z,97346.63
2023-04-04T10:24:02.111Z,97350.56
2023-04-04T10:26:29.716Z,97348.75
2023-04-04T10:28:58.091Z,97344.19
2023-04-04T10:31:27.367Z,97342.38
2023-04-04T10:34:07.975Z,97340.56
2023-04-04T10:36:45.392Z,97335.09
2023-04-04T10:39:22.619Z,97349.59
2023-04-04T10:41:52.533Z,97343.88
2023-04-04T10:44:25.022Z,97351.00
2023-04-04T10:46:55.359Z,97346.03
2023-04-04T10:49:23.593Z,97351.63
2023-04-04T10:51:56.350Z,97342.75
2023-04-04T10:54:26.589Z,97344.72
2023-04-04T10:56:56.592Z,97344.34
2023-04-04T10:59:26.273Z,97343.97
2023-04-04T11:01:58.081Z,97334.28
2023-04-04T11:04:34.630Z,97331.28
2023-04-04T11:07:12.663Z,97329.69
2023-04-04T11:09:52.206Z,97329.06
2023-04-04T11:12:31.435Z,97332.16
2023-04-04T11:15:08.348Z,97329.31
2023-04-04T11:17:43.812Z,97321.84
2023-04-04T11:20:12.311Z,97314.31
2023-04-04T11:22:42.671Z,97321.09
2023-04-04T11:25:49.850Z,97326.03
2023-04-04T11:28:45.457Z,97324.50
2023-04-04T11:31:25.744Z,97320.66
2023-04-04T11:33:56.368Z,97319.13
2023-04-04T11:36:53.156Z,97325.84
2023-04-04T11:39:27.006Z,97328.19
2023-04-04T11:41:57.092Z,97311.56
2023-04-04T11:44:30.286Z,97311.41
2023-04-04T11:47:02.308Z,97319.38
2023-04-04T11:49:32.091Z,97313.94
2023-04-04T11:51:59.798Z,97318.88
2023-04-04T11:54:27.936Z,97316.91
2023-04-04T11:56:55.428Z,97312.00
2023-04-04T11:59:23.751Z,97312.72
2023-04-04T12:01:52.882Z,97319.59
2023-04-04T12:04:21.513Z,97316.00
2023-04-04T12:06:52.106Z,97308.03
2023-04-04T12:09:20.605Z,97312.06
2023-04-04T12:11:48.798Z,97315.81
2023-04-04T12:14:18.188Z,97313.50
2023-04-04T12:16:46.191Z,97303.88
2023-04-04T12:19:15.129Z,97312.03
2023-04-04T12:21:42.916Z,97303.22
2023-04-04T12:24:11.027Z,97300.13
2023-04-04T12:26:40.853Z,97297.31
2023-04-04T12:29:09.457Z,97298.59
2023-04-04T12:31:39.203Z,97300.34
2023-04-04T12:34:07.119Z,97298.00
2023-04-04T12:36:40.025Z,97291.47
2023-04-04T12:39:09.270Z,97282.13
2023-04-04T12:41:37.644Z,97282.91
2023-04-04T12:44:07.439Z,97275.94
2023-04-04T12:46:39.618Z,97286.34
2023-04-04T12:49:09.406Z,97287.25
2023-04-04T12:51:39.775Z,97292.38
2023-04-04T12:54:08.207Z,97289.22
2023-04-04T12:56:36.957Z,97277.81
2023-04-04T12:59:05.576Z,97281.28
2023-04-04T13:01:33.713Z,97291.25
2023-04-04T13:04:04.157Z,97288.28
2023-04-04T13:06:32.275Z,97279.81
2023-04-04T13:09:01.343Z,97277.06
2023-04-04T13:12:00.035Z,97279.09
2023-04-04T13:14:28.109Z,97270.22
2023-04-04T13:17:08.154Z,97279.00
2023-04-04T13:19:35.954Z,97270.06
2023-04-04T13:22:04.152Z,97269.88
2023-04-04T13:24:31.661Z,97266.75
2023-04-04T13:27:01.008Z,97266.41
2023-04-04T13:29:28.576Z,97261.88
2023-04-04T13:31:56.508Z,97264.16
2023-04-04T13:34:26.631Z,97258.88
2023-04-04T13:36:56.191Z,97261.81
2023-04-04T13:39:23.776Z,97250.41
2023-04-04T13:41:51.374Z,97253.19
2023-04-04T13:44:20.380Z,97253.53
2023-04-04T13:46:47.916Z,97251.94
2023-04-04T13:49:15.489Z,97253.41
2023-04-04T13:51:43.040Z,97249.28
2023-04-04T13:54:11.227Z,97246.16
2023-04-04T13:56:38.772Z,97242.75
2023-04-04T13:59:06.384Z,97249.28
2023-04-04T14:01:35.499Z,97255.94
2023-04-04T14:04:10.249Z,97248.09
2023-04-04T14:06:44.577Z,97255.41
2023-04-04T14:09:12.144Z,97248.34
2023-04-04T14:11:39.756Z,97247.16
2023-04-04T14:14:07.340Z,97242.09
2023-04-04T14:16:36.395Z,97241.69
2023-04-04T14:19:04.516Z,97247.03
2023-04-04T14:21:32.052Z,97237.75
2023-04-04T14:23:59.571Z,97235.63
2023-04-04T14:26:27.086Z,97235.56
2023-04-04T14:28:54.653Z,97237.94
2023-04-04T14:31:22.242Z,97232.22
2023-04-04T14:33:51.201Z,97234.31
2023-04-04T14:36:19.058Z,97230.06
2023-04-04T14:38:46.663Z,97226.00
2023-04-04T14:41:14.640Z,97235.19
2023-04-04T14:43:42.171Z,97235.66
2023-04-04T14:46:09.767Z,97235.97
2023-04-04T14:48:37.324Z,97228.63
2023-04-04T14:51:06.496Z,97230.34
2023-04-04T14:53:34.110Z,97232.41
2023-04-04T14:56:01.653Z,97223.34
2023-04-04T14:58:29.211Z,97224.53
2023-04-04T15:00:56.852Z,97227.81
2023-04-04T15:03:24.427Z,97226.03
2023-04-04T15:05:52.137Z,97220.31
2023-04-04T15:08:21.002Z,97229.22
2023-04-04T15:10:48.573Z,97228.69
2023-04-04T15:13:16.176Z,97226.25
2023-04-04T15:15:43.807Z,97220.53
2023-04-04T15:18:11.363Z,97227.50
2023-04-04T15:20:40.111Z,97227.66
2023-04-04T15:23:08.155Z,97223.72
2023-04-04T15:25:37.171Z,97216.72
2023-04-04T15:28:04.745Z,97208.81
2023-04-04T15:30:33.334Z,97217.78
2023-04-04T15:33:01.056Z,97218.06
2023-04-04T15:35:28.657Z,97218.38
2023-04-04T15:37:56.199Z,97220.31
2023-04-04T15:40:23.817Z,97212.78
2023-04-04T15:42:52.746Z,97209.56
2023-04-04T15:45:20.425Z,97215.69
2023-04-04T15:47:48.190Z,97214.09
2023-04-04T15:50:15.982Z,97209.03
2023-04-04T15:52:43.551Z,97214.53
2023-04-04T15:55:13.782Z,97213.69
2023-04-04T15:57:44.419Z,97221.78
2023-04-04T16:00:16.795Z,97214.72
2023-04-04T16:02:44.610Z,97214.78
2023-04-04T16:05:12.225Z,97208.25
2023-04-04T16:07:39.773Z,97201.72
2023-04-04T16:10:08.333Z,97202.69
2023-04-04T16:12:36.034Z,97208.84
2023-04-04T16:15:03.631Z,97198.88
2023-04-04T16:17:33.317Z,97209.03
2023-04-04T16:20:01.084Z,97202.38
2023-04-04T16:22:28.609Z,97207.00
2023-04-04T16:24:56.124Z,97206.50
2023-04-04T16:27:24.750Z,97198.03
2023-04-04T16:29:52.369Z,97197.22
2023-04-04T16:32:19.920Z,97196.25
2023-04-04T16:34:48.792Z,97203.91
2023-04-04T16:37:17.207Z,97202.25
2023-04-04T16:39:46.408Z,97192.88
2023-04-04T16:42:14.336Z,97199.13
2023-04-04T16:44:41.883Z,97192.63
2023-04-04T16:47:10.385Z,97197.13
2023-04-04T16:49:38.610Z,97196.47
2023-04-04T16:52:07.598Z,97194.13
2023-04-04T16:54:35.271Z,97195.38
2023-04-04T16:57:03.119Z,97188.88
2023-04-04T16:59:30.741Z,97179.56
2023-04-04T17:01:58.307Z,97185.88
2023-04-04T17:04:25.993Z,97182.59
2023-04-04T17:06:53.704Z,97178.41
2023-04-04T17:09:22.606Z,97184.81
2023-04-04T17:11:50.148Z,97179.94
2023-04-04T17:14:18.239Z,97184.72
2023-04-04T17:16:45.885Z,97179.53
2023-04-04T17:19:13.457Z,97179.69
2023-04-04T17:21:41.032Z,97186.50
2023-04-04T17:24:08.631Z,97178.84
2023-04-04T17:26:37.575Z,97182.41
2023-04-04T17:29:05.199Z,97182.69
2023-04-04T17:31:33.575Z,97181.47
2023-04-04T17:34:06.837Z,97180.94
2023-04-04T17:36:34.509Z,97177.00
2023-04-04T17:39:02.208Z,97183.41
2023-04-04T17:41:29.875Z,97187.53
2023-04-04T17:43:59.313Z,97183.56
2023-04-04T17:46:27.034Z,97184.13
2023-04-04T17:48:54.878Z,97182.81
2023-04-04T17:51:22.822Z,97181.44
2023-04-04T17:53:51.221Z,97177.19
2023-04-04T17:56:18.777Z,97180.88
2023-04-04T17:58:46.514Z,97175.84
2023-04-04T18:01:15.898Z,97172.44
2023-04-04T18:03:46.624Z,97182.00
2023-04-04T18:06:14.515Z,97177.91
2023-04-04T18:08:42.734Z,97173.25
2023-04-04T18:11:10.872Z,97181.16
2023-04-04T18:13:38.512Z,97179.53
2023-04-04T18:16:07.331Z,97178.97
2023-04-04T18:18:37.382Z,97178.16
2023-04-04T18:21:05.103Z,97178.41
2023-04-04T18:23:32.713Z,97187.56
2023-04-04T18:26:01.679Z,97185.25
2023-04-04T18:28:29.248Z,97185.66
2023-04-04T18:30:57.068Z,97192.22
2023-04-04T18:33:26.487Z,97198.59
2023-04-04T18:35:55.908Z,97193.16
2023-04-04T18:38:25.090Z,97192.75
2023-04-04T18:40:52.924Z,97194.50
2023-04-04T18:43:20.554Z,97195.31
2023-04-04T18:45:48.658Z,97192.81
2023-04-04T18:48:16.821Z,97199.06
2023-04-04T18:50:45.581Z,97198.78
2023-04-04T18:53:14.610Z,97195.75
2023-04-04T18:55:42.107Z,97198.31
2023-04-04T18:58:09.690Z,97194.06
2023-04-04T19:00:37.403Z,97192.81
2023-04-04T19:03:07.563Z,97195.25
2023-04-04T19:05:37.817Z,97195.88
2023-04-04T19:08:08.302Z,97198.03
2023-04-04T19:10:37.773Z,97195.84
2023-04-04T19:13:05.455Z,97193.88
2023-04-04T19:15:34.146Z,97198.06
2023-04-04T19:18:01.737Z,97199.50
2023-04-04T19:20:29.248Z,97204.38
2023-04-04T19:22:56.807Z,97202.16
2023-04-04T19:25:24.371Z,97198.19
2023-04-04T19:27:53.422Z,97201.84
2023-04-04T19:30:41.882Z,97205.06
2023-04-04T19:33:12.025Z,97202.97
2023-04-04T19:35:53.117Z,97208.28
2023-04-04T19:38:24.659Z,97213.66
2023-04-04T19:40:54.758Z,97212.25
2023-04-04T19:43:24.034Z,97207.75
2023-04-04T19:45:53.124Z,97208.22
2023-04-04T19:48:44.702Z,97218.66
2023-04-04T19:51:32.998Z,97217.75
2023-04-04T19:54:01.052Z,97222.09
2023-04-04T19:56:29.736Z,97222.19
2023-04-04T19:59:00.160Z,97214.47
2023-04-04T20:01:29.132Z,97219.72
2023-04-04T20:03:57.369Z,97220.09
2023-04-04T20:06:27.462Z,97223.75
2023-04-04T20:08:57.445Z,97217.19
2023-04-04T20:11:29.498Z,97220.94
2023-04-04T20:13:58.991Z,97216.06
2023-04-04T20:16:27.386Z,97219.69
2023-04-04T20:18:55.361Z,97221.94
2023-04-04T20:21:24.165Z,97221.72
2023-04-04T20:23:54.099Z,97220.78
2023-04-04T20:26:46.888Z,97223.56
2023-04-04T20:29:17.854Z,97222.16
2023-04-04T20:31:46.965Z,97230.38
2023-04-04T20:34:38.557Z,97229.00
2023-04-04T20:37:09.178Z,97229.22
2023-04-04T20:39:41.097Z,97235.34
2023-04-04T20:42:18.384Z,97235.91
2023-04-04T20:44:47.619Z,97233.22
2023-04-04T20:47:42.707Z,97234.72
2023-04-04T20:50:42.506Z,97237.41
2023-04-04T20:53:18.186Z,97230.63
2023-04-04T20:55:45.900Z,97233.22
2023-04-04T20:58:26.476Z,97235.78
2023-04-04T21:00:56.817Z,97233.22
2023-04-04T21:03:31.722Z,97232.63
2023-04-04T21:06:03.548Z,97242.13
2023-04-04T21:08:39.452Z,97241.53
2023-04-04T21:11:07.703Z,97233.94
2023-04-04T21:13:37.658Z,97237.31
2023-04-04T21:16:09.199Z,97229.00
2023-04-04T21:18:37.996Z,97227.38
2023-04-04T21:21:16.646Z,97224.56
2023-04-04T21:23:47.109Z,97226.81
2023-04-04T21:26:39.080Z,97230.44
2023-04-04T21:29:08.297Z,97220.94
2023-04-04T21:31:39.595Z,97222.97
2023-04-04T21:34:12.549Z,97231.84
2023-04-04T21:36:40.827Z,97233.03
2023-04-04T21:39:11.922Z,97229.75
2023-04-04T21:41:40.347Z,97228.34
2023-04-04T21:44:09.441Z,97231.38
2023-04-04T21:46:39.571Z,97232.31
2023-04-04T21:49:08.817Z,97227.63
2023-04-04T21:51:36.849Z,97236.75
2023-04-04T21:54:04.860Z,97237.81
2023-04-04T21:56:32.436Z,97230.31
2023-04-04T21:59:00.858Z,97236.97
2023-04-04T22:01:28.907Z,97234.91
2023-04-04T22:03:58.034Z,97234.91
2023-04-04T22:06:27.209Z,97233.94
2023-04-04T22:08:56.637Z,97229.50
2023-04-04T22:11:26.015Z,97224.13
2023-04-04T22:14:03.125Z,97229.50
2023-04-04T22:16:31.826Z,97231.25
2023-04-04T22:19:03.642Z,97229.03
2023-04-04T22:21:36.154Z,97231.38
2023-04-04T22:24:03.860Z,97234.19
2023-04-04T22:26:33.153Z,97231.25
2023-04-04T22:29:01.560Z,97228.34
2023-04-04T22:31:29.451Z,97223.03
2023-04-04T22:33:57.205Z,97225.97
2023-04-04T22:36:26.190Z,97222.69
2023-04-04T22:38:57.831Z,97224.09
2023-04-04T22:41:28.624Z,97219.75
2023-04-04T22:43:56.439Z,97215.56
2023-04-04T22:46:25.405Z,97206.19
2023-04-04T22:49:05.366Z,97211.56
2023-04-04T22:51:42.765Z,97215.31
2023-04-04T22:54:10.506Z,97211.31
2023-04-04T22:56:38.065Z,97214.25
2023-04-04T22:59:05.623Z,97208.72
2023-04-04T23:01:33.184Z,97207.78
2023-04-04T23:04:00.813Z,97215.41
2023-04-04T23:06:29.488Z,97213.78
2023-04-04T23:08:58.959Z,97203.03
2023-04-04T23:11:27.162Z,97210.25
2023-04-04T23:13:57.032Z,97207.69
2023-04-04T23:16:26.259Z,97208.19
2023-04-04T23:18:54.099Z,97205.38
2023-04-04T23:21:21.882Z,97201.50
2023-04-04T23:23:49.596Z,97202.53
2023-04-04T23:26:18.517Z,97200.47
2023-04-04T23:28:46.156Z,97198.00
2023-04-04T23:31:14.846Z,97192.75
2023-04-04T23:33:43.172Z,97196.13
2023-04-04T23:36:10.940Z,97191.78
2023-04-04T23:38:38.537Z,97195.53
2023-04-04T23:41:06.189Z,97199.03
2023-04-04T23:43:35.990Z,97204.19
2023-04-04T23:46:03.803Z,97200.91
2023-04-04T23:48:31.464Z,97202.69
2023-04-04T23:51:01.646Z,97199.84
2023-04-04T23:53:29.707Z,97187.69
2023-04-04T23:55:57.254Z,97186.63
2023-04-04T23:58:24.776Z,97186.19
